sensor_id;sensor_type;location;lat;lon;timestamp;pressure;altitude;pressure_sealevel;temperature;humidity
70011;BME280;59543;37.950;-122.338;2023-09-19T00:01:33;101188.84;;;24.23;55.85
70011;BME280;59543;37.950;-122.338;2023-09-19T00:04:00;101182.44;;;24.29;55.71
70011;BME280;59543;37.950;-122.338;2023-09-19T00:06:30;101191.59;;;24.05;56.14
70011;BME280;59543;37.950;-122.338;2023-09-19T00:08:57;101195.84;;;24.01;56.34
70011;BME280;59543;37.950;-122.338;2023-09-19T00:11:28;101190.50;;;23.87;55.75
70011;BME280;59543;37.950;-122.338;2023-09-19T00:13:54;101191.72;;;23.91;55.97
70011;BME280;59543;37.950;-122.338;2023-09-19T00:16:21;101196.00;;;23.87;56.23
70011;BME280;59543;37.950;-122.338;2023-09-19T00:18:47;101187.38;;;23.84;55.74
70011;BME280;59543;37.950;-122.338;2023-09-19T00:21:14;101185.91;;;23.81;55.86
70011;BME280;59543;37.950;-122.338;2023-09-19T00:23:41;101180.53;;;23.68;56.25
70011;BME280;59543;37.950;-122.338;2023-09-19T00:26:07;101183.72;;;23.65;56.08
70011;BME280;59543;37.950;-122.338;2023-09-19T00:28:33;101175.31;;;23.60;56.40
70011;BME280;59543;37.950;-122.338;2023-09-19T00:31:01;101180.44;;;23.49;56.77
70011;BME280;59543;37.950;-122.338;2023-09-19T00:33:28;101182.03;;;23.39;56.91
70011;BME280;59543;37.950;-122.338;2023-09-19T00:35:56;101178.25;;;23.33;57.47
70011;BME280;59543;37.950;-122.338;2023-09-19T00:38:23;101181.19;;;23.38;57.29
70011;BME280;59543;37.950;-122.338;2023-09-19T00:40:54;101176.03;;;23.23;57.88
70011;BME280;59543;37.950;-122.338;2023-09-19T00:43:22;101173.53;;;23.15;57.84
70011;BME280;59543;37.950;-122.338;2023-09-19T00:45:53;101182.88;;;23.08;57.64
70011;BME280;59543;37.950;-122.338;2023-09-19T00:48:21;101181.44;;;22.98;58.56
70011;BME280;59543;37.950;-122.338;2023-09-19T00:50:49;101181.69;;;22.97;57.88
70011;BME280;59543;37.950;-122.338;2023-09-19T00:53:20;101189.91;;;22.90;58.54
70011;BME280;59543;37.950;-122.338;2023-09-19T00:55:47;101189.53;;;22.87;57.97
70011;BME280;59543;37.950;-122.338;2023-09-19T00:58:14;101187.88;;;22.79;57.91
70011;BME280;59543;37.950;-122.338;2023-09-19T01:00:42;101191.28;;;22.68;58.51
70011;BME280;59543;37.950;-122.338;2023-09-19T01:03:10;101193.00;;;22.62;58.81
70011;BME280;59543;37.950;-122.338;2023-09-19T01:05:39;101192.81;;;22.57;58.95
70011;BME280;59543;37.950;-122.338;2023-09-19T01:08:05;101201.69;;;22.52;59.03
70011;BME280;59543;37.950;-122.338;2023-09-19T01:10:33;101202.78;;;22.38;59.41
70011;BME280;59543;37.950;-122.338;2023-09-19T01:13:08;101203.91;;;22.24;59.93
70011;BME280;59543;37.950;-122.338;2023-09-19T01:27:06;101221.00;;;21.99;60.81
70011;BME280;59543;37.950;-122.338;2023-09-19T01:32:06;101217.63;;;21.71;62.08
70011;BME280;59543;37.950;-122.338;2023-09-19T01:34:52;101231.75;;;21.67;62.32
70011;BME280;59543;37.950;-122.338;2023-09-19T01:37:21;101227.75;;;21.63;62.39
70011;BME280;59543;37.950;-122.338;2023-09-19T01:40:11;101229.00;;;21.48;63.04
70011;BME280;59543;37.950;-122.338;2023-09-19T01:47:56;101237.34;;;21.33;62.95
70011;BME280;59543;37.950;-122.338;2023-09-19T01:50:32;101235.88;;;21.23;63.73
70011;BME280;59543;37.950;-122.338;2023-09-19T01:53:06;101240.72;;;21.21;63.74
70011;BME280;59543;37.950;-122.338;2023-09-19T01:55:40;101252.25;;;21.10;63.93
70011;BME280;59543;37.950;-122.338;2023-09-19T01:58:39;101256.41;;;20.99;63.95
70011;BME280;59543;37.950;-122.338;2023-09-19T02:01:11;101259.13;;;20.93;64.90
70011;BME280;59543;37.950;-122.338;2023-09-19T02:03:40;101258.91;;;20.88;65.06
70011;BME280;59543;37.950;-122.338;2023-09-19T02:06:07;101259.13;;;20.86;65.20
70011;BME280;59543;37.950;-122.338;2023-09-19T02:08:37;101270.41;;;20.70;65.28
70011;BME280;59543;37.950;-122.338;2023-09-19T02:11:03;101265.38;;;20.73;65.50
70011;BME280;59543;37.950;-122.338;2023-09-19T02:13:30;101268.31;;;20.78;65.16
70011;BME280;59543;37.950;-122.338;2023-09-19T02:15:57;101260.94;;;20.72;65.70
70011;BME280;59543;37.950;-122.338;2023-09-19T02:18:23;101265.94;;;20.55;66.32
70011;BME280;59543;37.950;-122.338;2023-09-19T02:20:50;101271.78;;;20.52;66.35
70011;BME280;59543;37.950;-122.338;2023-09-19T02:23:17;101268.53;;;20.42;64.85
70011;BME280;59543;37.950;-122.338;2023-09-19T02:25:51;101265.75;;;20.36;61.80
70011;BME280;59543;37.950;-122.338;2023-09-19T02:28:17;101274.19;;;20.34;60.94
70011;BME280;59543;37.950;-122.338;2023-09-19T02:30:43;101266.38;;;20.31;59.79
70011;BME280;59543;37.950;-122.338;2023-09-19T02:33:13;101271.69;;;20.11;60.65
70011;BME280;59543;37.950;-122.338;2023-09-19T02:35:39;101275.31;;;20.18;59.29
70011;BME280;59543;37.950;-122.338;2023-09-19T02:38:06;101277.75;;;20.06;60.63
70011;BME280;59543;37.950;-122.338;2023-09-19T02:40:37;101272.41;;;19.92;59.98
70011;BME280;59543;37.950;-122.338;2023-09-19T02:43:04;101279.94;;;19.90;59.63
70011;BME280;59543;37.950;-122.338;2023-09-19T02:45:31;101278.75;;;19.99;59.31
70011;BME280;59543;37.950;-122.338;2023-09-19T02:47:57;101284.34;;;19.91;59.07
70011;BME280;59543;37.950;-122.338;2023-09-19T02:50:24;101280.25;;;20.01;58.90
70011;BME280;59543;37.950;-122.338;2023-09-19T02:52:50;101277.03;;;19.70;59.93
70011;BME280;59543;37.950;-122.338;2023-09-19T02:55:18;101276.22;;;19.54;60.38
70011;BME280;59543;37.950;-122.338;2023-09-19T02:57:49;101270.72;;;19.48;60.97
70011;BME280;59543;37.950;-122.338;2023-09-19T03:00:17;101273.22;;;19.49;60.84
70011;BME280;59543;37.950;-122.338;2023-09-19T03:02:50;101277.38;;;19.45;61.19
70011;BME280;59543;37.950;-122.338;2023-09-19T03:05:17;101276.34;;;19.25;61.85
70011;BME280;59543;37.950;-122.338;2023-09-19T03:07:43;101289.97;;;19.25;61.92
70011;BME280;59543;37.950;-122.338;2023-09-19T03:10:11;101282.84;;;19.24;62.17
70011;BME280;59543;37.950;-122.338;2023-09-19T03:12:38;101297.03;;;19.19;62.47
70011;BME280;59543;37.950;-122.338;2023-09-19T03:15:06;101287.97;;;18.97;62.92
70011;BME280;59543;37.950;-122.338;2023-09-19T03:17:34;101287.78;;;18.99;63.36
70011;BME280;59543;37.950;-122.338;2023-09-19T03:20:03;101286.66;;;19.08;63.34
70011;BME280;59543;37.950;-122.338;2023-09-19T03:22:34;101282.13;;;19.00;62.93
70011;BME280;59543;37.950;-122.338;2023-09-19T03:25:01;101288.44;;;18.86;63.68
70011;BME280;59543;37.950;-122.338;2023-09-19T03:27:27;101290.41;;;18.92;63.15
70011;BME280;59543;37.950;-122.338;2023-09-19T03:29:53;101288.84;;;18.83;63.61
70011;BME280;59543;37.950;-122.338;2023-09-19T03:32:20;101288.28;;;18.87;63.10
70011;BME280;59543;37.950;-122.338;2023-09-19T03:34:46;101282.25;;;18.77;63.78
70011;BME280;59543;37.950;-122.338;2023-09-19T03:37:14;101286.69;;;18.78;63.52
70011;BME280;59543;37.950;-122.338;2023-09-19T03:39:40;101289.19;;;18.65;64.22
70011;BME280;59543;37.950;-122.338;2023-09-19T03:42:06;101290.91;;;18.66;64.09
70011;BME280;59543;37.950;-122.338;2023-09-19T03:44:33;101302.25;;;18.55;64.64
70011;BME280;59543;37.950;-122.338;2023-09-19T03:46:59;101303.19;;;18.62;64.42
70011;BME280;59543;37.950;-122.338;2023-09-19T03:49:25;101295.00;;;18.62;64.11
70011;BME280;59543;37.950;-122.338;2023-09-19T03:51:52;101292.69;;;18.73;63.82
70011;BME280;59543;37.950;-122.338;2023-09-19T03:54:18;101294.47;;;18.66;64.50
70011;BME280;59543;37.950;-122.338;2023-09-19T03:56:45;101294.84;;;18.63;64.17
70011;BME280;59543;37.950;-122.338;2023-09-19T03:59:11;101290.44;;;18.47;64.79
70011;BME280;59543;37.950;-122.338;2023-09-19T04:01:38;101292.59;;;18.52;65.07
70011;BME280;59543;37.950;-122.338;2023-09-19T04:04:05;101297.38;;;18.50;64.93
70011;BME280;59543;37.950;-122.338;2023-09-19T04:06:34;101300.28;;;18.48;65.02
70011;BME280;59543;37.950;-122.338;2023-09-19T04:09:03;101303.28;;;18.24;66.01
70011;BME280;59543;37.950;-122.338;2023-09-19T04:11:32;101296.81;;;18.40;65.16
70011;BME280;59543;37.950;-122.338;2023-09-19T04:14:02;101305.94;;;18.32;65.50
70011;BME280;59543;37.950;-122.338;2023-09-19T04:16:29;101306.88;;;18.39;65.84
70011;BME280;59543;37.950;-122.338;2023-09-19T04:18:55;101303.53;;;18.29;65.66
70011;BME280;59543;37.950;-122.338;2023-09-19T04:21:21;101298.22;;;18.21;66.24
70011;BME280;59543;37.950;-122.338;2023-09-19T04:23:48;101301.00;;;18.13;66.69
70011;BME280;59543;37.950;-122.338;2023-09-19T04:26:14;101292.25;;;18.02;67.05
70011;BME280;59543;37.950;-122.338;2023-09-19T04:28:43;101295.47;;;18.06;66.98
70011;BME280;59543;37.950;-122.338;2023-09-19T04:31:09;101301.38;;;18.10;67.22
70011;BME280;59543;37.950;-122.338;2023-09-19T04:33:37;101294.13;;;18.02;67.38
70011;BME280;59543;37.950;-122.338;2023-09-19T04:36:04;101311.69;;;17.99;67.61
70011;BME280;59543;37.950;-122.338;2023-09-19T04:38:33;101314.28;;;17.93;68.14
70011;BME280;59543;37.950;-122.338;2023-09-19T04:40:59;101310.59;;;17.86;68.00
70011;BME280;59543;37.950;-122.338;2023-09-19T04:43:26;101311.16;;;17.81;68.58
70011;BME280;59543;37.950;-122.338;2023-09-19T04:45:54;101309.09;;;17.83;68.46
70011;BME280;59543;37.950;-122.338;2023-09-19T04:48:22;101306.94;;;17.78;68.83
70011;BME280;59543;37.950;-122.338;2023-09-19T04:50:51;101299.78;;;17.77;69.20
70011;BME280;59543;37.950;-122.338;2023-09-19T04:53:18;101294.47;;;17.84;69.11
70011;BME280;59543;37.950;-122.338;2023-09-19T04:55:52;101296.16;;;17.85;68.87
70011;BME280;59543;37.950;-122.338;2023-09-19T04:58:18;101296.75;;;17.72;69.83
70011;BME280;59543;37.950;-122.338;2023-09-19T05:00:45;101305.44;;;17.68;70.09
70011;BME280;59543;37.950;-122.338;2023-09-19T05:03:12;101313.66;;;17.59;70.20
70011;BME280;59543;37.950;-122.338;2023-09-19T05:05:38;101313.59;;;17.68;69.75
70011;BME280;59543;37.950;-122.338;2023-09-19T05:08:08;101320.72;;;17.69;70.26
70011;BME280;59543;37.950;-122.338;2023-09-19T05:10:35;101311.00;;;17.51;72.68
70011;BME280;59543;37.950;-122.338;2023-09-19T05:13:05;101305.81;;;17.65;74.90
70011;BME280;59543;37.950;-122.338;2023-09-19T05:15:33;101307.63;;;17.72;77.51
70011;BME280;59543;37.950;-122.338;2023-09-19T05:17:59;101314.53;;;17.60;78.20
70011;BME280;59543;37.950;-122.338;2023-09-19T05:20:26;101308.78;;;17.55;79.58
70011;BME280;59543;37.950;-122.338;2023-09-19T05:23:06;101312.69;;;17.52;80.74
70011;BME280;59543;37.950;-122.338;2023-09-19T05:25:39;101307.97;;;17.46;82.06
70011;BME280;59543;37.950;-122.338;2023-09-19T05:28:11;101310.97;;;17.28;83.13
70011;BME280;59543;37.950;-122.338;2023-09-19T05:30:41;101313.47;;;17.38;82.89
70011;BME280;59543;37.950;-122.338;2023-09-19T05:33:10;101310.84;;;17.22;83.67
70011;BME280;59543;37.950;-122.338;2023-09-19T05:35:36;101309.75;;;17.00;84.55
70011;BME280;59543;37.950;-122.338;2023-09-19T05:38:05;101309.13;;;16.98;85.18
70011;BME280;59543;37.950;-122.338;2023-09-19T05:40:34;101311.81;;;17.06;84.76
70011;BME280;59543;37.950;-122.338;2023-09-19T05:43:01;101304.53;;;16.98;85.85
70011;BME280;59543;37.950;-122.338;2023-09-19T05:45:31;101301.94;;;17.05;85.16
70011;BME280;59543;37.950;-122.338;2023-09-19T05:48:10;101317.06;;;16.99;85.68
70011;BME280;59543;37.950;-122.338;2023-09-19T05:50:41;101309.34;;;16.88;86.76
70011;BME280;59543;37.950;-122.338;2023-09-19T05:53:08;101317.78;;;16.93;86.83
70011;BME280;59543;37.950;-122.338;2023-09-19T05:55:37;101317.97;;;16.91;86.58
70011;BME280;59543;37.950;-122.338;2023-09-19T05:58:04;101317.00;;;17.16;85.58
70011;BME280;59543;37.950;-122.338;2023-09-19T06:00:30;101324.31;;;17.15;85.58
70011;BME280;59543;37.950;-122.338;2023-09-19T06:02:58;101324.25;;;16.92;86.22
70011;BME280;59543;37.950;-122.338;2023-09-19T06:05:27;101320.56;;;16.85;86.48
70011;BME280;59543;37.950;-122.338;2023-09-19T06:07:54;101320.56;;;16.68;87.61
70011;BME280;59543;37.950;-122.338;2023-09-19T06:10:20;101320.56;;;16.68;87.36
70011;BME280;59543;37.950;-122.338;2023-09-19T06:12:48;101322.44;;;16.68;87.45
70011;BME280;59543;37.950;-122.338;2023-09-19T06:15:15;101315.97;;;16.69;87.16
70011;BME280;59543;37.950;-122.338;2023-09-19T06:17:54;101327.75;;;16.53;87.97
70011;BME280;59543;37.950;-122.338;2023-09-19T06:20:25;101334.22;;;16.44;88.35
70011;BME280;59543;37.950;-122.338;2023-09-19T06:22:52;101331.50;;;16.36;88.68
70011;BME280;59543;37.950;-122.338;2023-09-19T06:25:19;101328.63;;;16.37;89.57
70011;BME280;59543;37.950;-122.338;2023-09-19T06:27:47;101332.38;;;16.28;89.71
70011;BME280;59543;37.950;-122.338;2023-09-19T06:30:13;101335.94;;;16.29;90.06
70011;BME280;59543;37.950;-122.338;2023-09-19T06:32:40;101341.53;;;16.43;89.47
70011;BME280;59543;37.950;-122.338;2023-09-19T06:35:14;101345.09;;;16.36;89.99
70011;BME280;59543;37.950;-122.338;2023-09-19T06:37:42;101337.47;;;16.23;92.01
70011;BME280;59543;37.950;-122.338;2023-09-19T06:40:13;101342.06;;;16.22;91.54
70011;BME280;59543;37.950;-122.338;2023-09-19T06:43:06;101348.69;;;16.12;91.87
70011;BME280;59543;37.950;-122.338;2023-09-19T06:45:32;101342.06;;;16.14;91.69
70011;BME280;59543;37.950;-122.338;2023-09-19T06:47:58;101343.28;;;16.04;93.51
70011;BME280;59543;37.950;-122.338;2023-09-19T06:50:26;101350.38;;;15.96;93.93
70011;BME280;59543;37.950;-122.338;2023-09-19T06:52:54;101347.00;;;16.03;93.74
70011;BME280;59543;37.950;-122.338;2023-09-19T06:55:21;101336.81;;;16.13;93.66
70011;BME280;59543;37.950;-122.338;2023-09-19T06:57:51;101342.75;;;16.25;93.03
70011;BME280;59543;37.950;-122.338;2023-09-19T07:00:18;101344.78;;;16.14;93.31
70011;BME280;59543;37.950;-122.338;2023-09-19T07:02:45;101340.88;;;16.25;93.35
70011;BME280;59543;37.950;-122.338;2023-09-19T07:05:11;101336.63;;;16.22;93.16
70011;BME280;59543;37.950;-122.338;2023-09-19T07:07:37;101326.97;;;16.12;93.96
70011;BME280;59543;37.950;-122.338;2023-09-19T07:10:06;101330.72;;;16.11;94.40
70011;BME280;59543;37.950;-122.338;2023-09-19T07:12:34;101335.78;;;16.14;93.95
70011;BME280;59543;37.950;-122.338;2023-09-19T07:15:00;101336.97;;;16.19;94.19
70011;BME280;59543;37.950;-122.338;2023-09-19T07:17:26;101326.97;;;16.12;94.58
70011;BME280;59543;37.950;-122.338;2023-09-19T07:19:53;101326.47;;;16.00;95.47
70011;BME280;59543;37.950;-122.338;2023-09-19T07:22:20;101329.19;;;16.08;95.08
70011;BME280;59543;37.950;-122.338;2023-09-19T07:24:46;101321.06;;;15.92;95.73
70011;BME280;59543;37.950;-122.338;2023-09-19T07:27:14;101326.66;;;16.07;95.52
70011;BME280;59543;37.950;-122.338;2023-09-19T07:29:40;101333.41;;;16.03;96.15
70011;BME280;59543;37.950;-122.338;2023-09-19T07:32:07;101338.19;;;16.00;96.63
70011;BME280;59543;37.950;-122.338;2023-09-19T07:34:35;101327.16;;;15.86;97.52
70011;BME280;59543;37.950;-122.338;2023-09-19T07:37:02;101330.56;;;16.04;96.49
70011;BME280;59543;37.950;-122.338;2023-09-19T07:39:28;101324.78;;;15.99;96.73
70011;BME280;59543;37.950;-122.338;2023-09-19T07:41:55;101326.16;;;15.95;96.80
70011;BME280;59543;37.950;-122.338;2023-09-19T07:44:22;101319.00;;;15.77;98.54
70011;BME280;59543;37.950;-122.338;2023-09-19T07:46:48;101322.91;;;15.91;97.76
70011;BME280;59543;37.950;-122.338;2023-09-19T07:49:16;101315.28;;;15.87;97.97
70011;BME280;59543;37.950;-122.338;2023-09-19T07:51:43;101319.19;;;15.92;97.87
70011;BME280;59543;37.950;-122.338;2023-09-19T07:54:12;101320.38;;;15.98;98.29
70011;BME280;59543;37.950;-122.338;2023-09-19T07:56:40;101320.88;;;15.93;97.53
70011;BME280;59543;37.950;-122.338;2023-09-19T07:59:06;101325.09;;;15.88;98.66
70011;BME280;59543;37.950;-122.338;2023-09-19T08:01:34;101328.66;;;15.96;97.96
70011;BME280;59543;37.950;-122.338;2023-09-19T08:04:01;101327.97;;;15.94;97.96
70011;BME280;59543;37.950;-122.338;2023-09-19T08:06:27;101331.22;;;15.98;98.14
70011;BME280;59543;37.950;-122.338;2023-09-19T08:08:55;101328.16;;;15.93;98.44
70011;BME280;59543;37.950;-122.338;2023-09-19T08:11:22;101324.78;;;15.91;98.07
70011;BME280;59543;37.950;-122.338;2023-09-19T08:13:50;101316.97;;;15.88;97.33
70011;BME280;59543;37.950;-122.338;2023-09-19T08:16:16;101318.84;;;15.95;97.35
70011;BME280;59543;37.950;-122.338;2023-09-19T08:18:48;101324.97;;;15.97;97.12
70011;BME280;59543;37.950;-122.338;2023-09-19T08:21:23;101323.25;;;15.88;96.88
70011;BME280;59543;37.950;-122.338;2023-09-19T08:23:50;101318.00;;;15.78;97.41
70011;BME280;59543;37.950;-122.338;2023-09-19T08:26:16;101324.97;;;15.97;97.24
70011;BME280;59543;37.950;-122.338;2023-09-19T08:28:42;101320.72;;;15.95;97.10
70011;BME280;59543;37.950;-122.338;2023-09-19T08:31:09;101327.00;;;16.04;96.78
70011;BME280;59543;37.950;-122.338;2023-09-19T08:33:36;101328.66;;;15.88;96.48
70011;BME280;59543;37.950;-122.338;2023-09-19T08:36:06;101324.09;;;15.81;97.00
70011;BME280;59543;37.950;-122.338;2023-09-19T08:38:35;101326.97;;;15.71;97.74
70011;BME280;59543;37.950;-122.338;2023-09-19T08:41:06;101335.44;;;15.76;97.91
70011;BME280;59543;37.950;-122.338;2023-09-19T08:43:34;101327.44;;;15.58;99.66
70011;BME280;59543;37.950;-122.338;2023-09-19T08:46:15;101324.72;;;15.58;100.00
70011;BME280;59543;37.950;-122.338;2023-09-19T08:48:49;101326.06;;;15.54;100.00
70011;BME280;59543;37.950;-122.338;2023-09-19T08:51:26;101325.41;;;15.60;100.00
70011;BME280;59543;37.950;-122.338;2023-09-19T08:54:08;101324.38;;;15.61;100.00
70011;BME280;59543;37.950;-122.338;2023-09-19T08:56:41;101323.69;;;15.51;100.00
70011;BME280;59543;37.950;-122.338;2023-09-19T08:59:09;101320.28;;;15.49;100.00
70011;BME280;59543;37.950;-122.338;2023-09-19T09:01:38;101332.66;;;15.43;100.00
70011;BME280;59543;37.950;-122.338;2023-09-19T09:04:08;101330.47;;;15.47;100.00
70011;BME280;59543;37.950;-122.338;2023-09-19T09:06:35;101331.00;;;15.50;100.00
70011;BME280;59543;37.950;-122.338;2023-09-19T09:09:03;101324.72;;;15.50;100.00
70011;BME280;59543;37.950;-122.338;2023-09-19T09:11:33;101322.13;;;15.40;100.00
70011;BME280;59543;37.950;-122.338;2023-09-19T09:13:59;101319.63;;;15.47;100.00
70011;BME280;59543;37.950;-122.338;2023-09-19T09:16:30;101313.88;;;15.58;100.00
70011;BME280;59543;37.950;-122.338;2023-09-19T09:18:56;101309.63;;;15.47;100.00
70011;BME280;59543;37.950;-122.338;2023-09-19T09:21:25;101313.84;;;15.42;100.00
70011;BME280;59543;37.950;-122.338;2023-09-19T09:23:51;101315.38;;;15.44;100.00
70011;BME280;59543;37.950;-122.338;2023-09-19T09:29:03;101309.59;;;15.31;100.00
70011;BME280;59543;37.950;-122.338;2023-09-19T09:31:29;101316.00;;;15.22;100.00
70011;BME280;59543;37.950;-122.338;2023-09-19T09:33:56;101309.78;;;15.38;100.00
70011;BME280;59543;37.950;-122.338;2023-09-19T09:36:37;101309.78;;;15.29;99.90
70011;BME280;59543;37.950;-122.338;2023-09-19T09:39:04;101306.16;;;15.13;100.00
70011;BME280;59543;37.950;-122.338;2023-09-19T09:41:50;101315.47;;;15.10;100.00
70011;BME280;59543;37.950;-122.338;2023-09-19T09:44:18;101313.41;;;15.04;100.00
70011;BME280;59543;37.950;-122.338;2023-09-19T09:46:46;101316.66;;;15.16;100.00
70011;BME280;59543;37.950;-122.338;2023-09-19T09:49:25;101326.47;;;15.08;100.00
70011;BME280;59543;37.950;-122.338;2023-09-19T09:52:05;101328.63;;;14.97;100.00
70011;BME280;59543;37.950;-122.338;2023-09-19T09:55:02;101317.78;;;14.97;100.00
70011;BME280;59543;37.950;-122.338;2023-09-19T09:57:33;101321.31;;;14.89;100.00
70011;BME280;59543;37.950;-122.338;2023-09-19T10:00:01;101319.47;;;14.98;100.00
70011;BME280;59543;37.950;-122.338;2023-09-19T10:02:36;101316.66;;;15.16;99.97
70011;BME280;59543;37.950;-122.338;2023-09-19T10:07:52;101307.94;;;14.88;100.00
70011;BME280;59543;37.950;-122.338;2023-09-19T10:10:39;101301.50;;;14.89;100.00
70011;BME280;59543;37.950;-122.338;2023-09-19T10:13:10;101300.00;;;14.94;100.00
70011;BME280;59543;37.950;-122.338;2023-09-19T10:15:58;101294.91;;;14.91;100.00
70011;BME280;59543;37.950;-122.338;2023-09-19T10:18:33;101288.09;;;14.79;100.00
70011;BME280;59543;37.950;-122.338;2023-09-19T10:21:02;101280.25;;;14.68;100.00
70011;BME280;59543;37.950;-122.338;2023-09-19T10:23:31;101280.81;;;14.71;100.00
70011;BME280;59543;37.950;-122.338;2023-09-19T10:26:01;101284.84;;;14.67;100.00
70011;BME280;59543;37.950;-122.338;2023-09-19T10:28:28;101284.38;;;14.80;100.00
70011;BME280;59543;37.950;-122.338;2023-09-19T10:30:57;101276.34;;;14.62;100.00
70011;BME280;59543;37.950;-122.338;2023-09-19T10:33:24;101280.81;;;14.71;100.00
70011;BME280;59543;37.950;-122.338;2023-09-19T10:35:59;101277.03;;;14.64;100.00
70011;BME280;59543;37.950;-122.338;2023-09-19T10:38:27;101273.31;;;14.65;100.00
70011;BME280;59543;37.950;-122.338;2023-09-19T10:40:56;101272.78;;;14.61;100.00
70011;BME280;59543;37.950;-122.338;2023-09-19T10:43:30;101263.31;;;14.57;100.00
70011;BME280;59543;37.950;-122.338;2023-09-19T10:46:01;101260.75;;;14.56;100.00
70011;BME280;59543;37.950;-122.338;2023-09-19T10:48:31;101264.81;;;14.52;100.00
70011;BME280;59543;37.950;-122.338;2023-09-19T10:51:20;101261.97;;;14.61;100.00
70011;BME280;59543;37.950;-122.338;2023-09-19T10:54:05;101271.56;;;14.90;100.00
70011;BME280;59543;37.950;-122.338;2023-09-19T10:56:36;101272.84;;;14.70;100.00
70011;BME280;59543;37.950;-122.338;2023-09-19T10:59:16;101272.03;;;14.85;100.00
70011;BME280;59543;37.950;-122.338;2023-09-19T11:01:54;101265.91;;;14.75;100.00
70011;BME280;59543;37.950;-122.338;2023-09-19T11:04:26;101261.53;;;14.74;100.00
70011;BME280;59543;37.950;-122.338;2023-09-19T11:07:10;101263.91;;;14.77;100.00
70011;BME280;59543;37.950;-122.338;2023-09-19T11:09:53;101261.72;;;14.81;100.00
70011;BME280;59543;37.950;-122.338;2023-09-19T11:15:02;101255.13;;;14.83;100.00
70011;BME280;59543;37.950;-122.338;2023-09-19T11:17:35;101253.81;;;14.96;100.00
70011;BME280;59543;37.950;-122.338;2023-09-19T11:30:46;101257.72;;;15.01;100.00
70011;BME280;59543;37.950;-122.338;2023-09-19T11:33:27;101256.31;;;14.97;100.00
70011;BME280;59543;37.950;-122.338;2023-09-19T11:36:10;101249.38;;;14.95;100.00
70011;BME280;59543;37.950;-122.338;2023-09-19T11:49:19;101246.34;;;14.90;100.00
70011;BME280;59543;37.950;-122.338;2023-09-19T11:51:52;101258.50;;;14.85;100.00
70011;BME280;59543;37.950;-122.338;2023-09-19T11:54:18;101257.13;;;14.81;100.00
70011;BME280;59543;37.950;-122.338;2023-09-19T11:56:56;101254.06;;;14.76;100.00
70011;BME280;59543;37.950;-122.338;2023-09-19T11:59:25;101252.22;;;14.85;100.00
70011;BME280;59543;37.950;-122.338;2023-09-19T12:01:56;101254.53;;;14.63;100.00
70011;BME280;59543;37.950;-122.338;2023-09-19T12:04:42;101255.94;;;14.50;100.00
70011;BME280;59543;37.950;-122.338;2023-09-19T12:07:15;101258.31;;;14.45;100.00
70011;BME280;59543;37.950;-122.338;2023-09-19T12:09:43;101255.88;;;14.33;100.00
70011;BME280;59543;37.950;-122.338;2023-09-19T12:12:33;101256.19;;;14.30;100.00
70011;BME280;59543;37.950;-122.338;2023-09-19T12:14:59;101253.44;;;14.22;100.00
70011;BME280;59543;37.950;-122.338;2023-09-19T12:17:39;101255.31;;;14.22;100.00
70011;BME280;59543;37.950;-122.338;2023-09-19T12:20:10;101245.97;;;14.16;100.00
70011;BME280;59543;37.950;-122.338;2023-09-19T12:22:45;101252.53;;;14.13;100.00
70011;BME280;59543;37.950;-122.338;2023-09-19T12:25:12;101260.13;;;14.10;100.00
70011;BME280;59543;37.950;-122.338;2023-09-19T12:27:46;101258.78;;;14.06;100.00
70011;BME280;59543;37.950;-122.338;2023-09-19T12:30:13;101256.53;;;14.01;100.00
70011;BME280;59543;37.950;-122.338;2023-09-19T12:32:46;101262.94;;;14.00;100.00
70011;BME280;59543;37.950;-122.338;2023-09-19T12:35:32;101266.50;;;14.01;100.00
70011;BME280;59543;37.950;-122.338;2023-09-19T12:38:02;101258.25;;;14.02;100.00
70011;BME280;59543;37.950;-122.338;2023-09-19T12:40:32;101254.13;;;13.98;100.00
70011;BME280;59543;37.950;-122.338;2023-09-19T12:43:01;101261.09;;;14.01;100.00
70011;BME280;59543;37.950;-122.338;2023-09-19T12:45:31;101263.22;;;14.15;100.00
70011;BME280;59543;37.950;-122.338;2023-09-19T12:51:08;101255.22;;;14.05;100.00
70011;BME280;59543;37.950;-122.338;2023-09-19T12:53:43;101264.69;;;14.09;100.00
70011;BME280;59543;37.950;-122.338;2023-09-19T12:56:15;101260.13;;;14.10;100.00
70011;BME280;59543;37.950;-122.338;2023-09-19T12:58:58;101260.84;;;14.12;100.00
70011;BME280;59543;37.950;-122.338;2023-09-19T13:01:27;101263.03;;;14.43;100.00
70011;BME280;59543;37.950;-122.338;2023-09-19T13:04:16;101267.78;;;14.75;100.00
70011;BME280;59543;37.950;-122.338;2023-09-19T13:06:46;101262.47;;;14.57;100.00
70011;BME280;59543;37.950;-122.338;2023-09-19T13:09:15;101263.56;;;14.46;100.00
70011;BME280;59543;37.950;-122.338;2023-09-19T13:11:43;101266.78;;;14.50;100.00
70011;BME280;59543;37.950;-122.338;2023-09-19T13:14:23;101267.69;;;14.58;100.00
70011;BME280;59543;37.950;-122.338;2023-09-19T13:17:04;101273.22;;;14.49;100.00
70011;BME280;59543;37.950;-122.338;2023-09-19T13:19:42;101269.19;;;14.87;100.00
70011;BME280;59543;37.950;-122.338;2023-09-19T13:22:39;101269.75;;;14.64;100.00
70011;BME280;59543;37.950;-122.338;2023-09-19T13:25:08;101269.66;;;14.82;100.00